createdAt,value
2018-06-27T00:01:48.970Z,78.43
2018-06-27T00:04:17.359Z,79.57
2018-06-27T00:06:45.761Z,79.77
2018-06-27T00:09:14.139Z,79.19
2018-06-27T00:11:42.534Z,79.80
2018-06-27T00:14:10.943Z,79.35
2018-06-27T00:16:39.349Z,79.94
2018-06-27T00:19:07.723Z,79.91
2018-06-27T00:21:36.117Z,80.23
2018-06-27T00:24:04.502Z,79.82
2018-06-27T00:26:32.922Z,80.54
2018-06-27T00:29:01.299Z,80.49
2018-06-27T00:31:29.703Z,80.60
2018-06-27T00:33:58.126Z,79.81
2018-06-27T00:36:26.500Z,80.70
2018-06-27T00:38:54.889Z,80.43
2018-06-27T00:41:23.389Z,81.01
2018-06-27T00:43:51.797Z,81.17
2018-06-27T00:46:20.180Z,79.94
2018-06-27T00:48:48.581Z,80.79
2018-06-27T00:51:16.962Z,81.24
2018-06-27T00:53:50.803Z,81.23
2018-06-27T00:56:19.183Z,81.16
2018-06-27T00:58:47.577Z,81.36
2018-06-27T01:01:15.963Z,80.00
2018-06-27T01:03:44.354Z,80.86
2018-06-27T01:06:12.721Z,80.73
2018-06-27T01:08:41.119Z,80.12
2018-06-27T01:11:09.484Z,80.00
2018-06-27T01:13:37.912Z,79.93
2018-06-27T01:16:06.291Z,80.50
2018-06-27T01:18:34.691Z,80.50
2018-06-27T01:21:03.072Z,80.53
2018-06-27T01:23:31.495Z,79.96
2018-06-27T01:25:59.871Z,80.19
2018-06-27T01:28:28.250Z,80.11
2018-06-27T01:30:56.610Z,80.80
2018-06-27T01:33:25.000Z,80.97
2018-06-27T01:35:53.356Z,81.26
2018-06-27T01:38:21.746Z,81.06
2018-06-27T01:40:50.146Z,81.21
2018-06-27T01:43:18.545Z,80.87
2018-06-27T01:45:46.942Z,80.76
2018-06-27T01:48:15.335Z,80.63
2018-06-27T01:50:43.702Z,80.50
2018-06-27T01:53:13.306Z,80.87
2018-06-27T01:55:41.667Z,80.58
2018-06-27T01:58:10.049Z,81.14
2018-06-27T02:00:38.622Z,80.54
2018-06-27T02:03:07.333Z,81.17
2018-06-27T02:05:35.794Z,81.54
2018-06-27T02:08:04.186Z,80.75
2018-06-27T02:10:32.574Z,80.93
2018-06-27T02:13:00.967Z,81.15
2018-06-27T02:15:29.367Z,81.49
2018-06-27T02:17:57.725Z,81.39
2018-06-27T02:20:26.104Z,80.65
2018-06-27T02:22:55.402Z,80.81
2018-06-27T02:25:23.794Z,81.42
2018-06-27T02:27:52.159Z,80.73
2018-06-27T02:30:20.558Z,81.05
2018-06-27T02:32:48.926Z,81.17
2018-06-27T02:35:17.318Z,81.15
2018-06-27T02:37:45.694Z,80.71
2018-06-27T02:40:14.086Z,80.68
2018-06-27T02:42:42.454Z,80.75
2018-06-27T02:45:10.851Z,80.80
2018-06-27T02:47:39.243Z,80.90
2018-06-27T02:50:07.738Z,81.40
2018-06-27T02:52:36.112Z,81.45
2018-06-27T02:55:04.563Z,81.27
2018-06-27T02:57:32.962Z,81.28
2018-06-27T03:00:01.359Z,81.00
2018-06-27T03:02:30.015Z,81.75
2018-06-27T03:04:58.360Z,81.67
2018-06-27T03:07:26.734Z,82.10
2018-06-27T03:09:55.126Z,81.64
2018-06-27T03:12:23.519Z,81.61
2018-06-27T03:14:51.907Z,81.61
2018-06-27T03:17:20.275Z,81.55
2018-06-27T03:19:48.671Z,82.08
2018-06-27T03:22:17.047Z,81.71
2018-06-27T03:24:45.593Z,81.71
2018-06-27T03:27:13.963Z,81.76
2018-06-27T03:29:42.334Z,81.62
2018-06-27T03:32:10.726Z,82.03
2018-06-27T03:34:40.102Z,81.90
2018-06-27T03:37:08.499Z,82.08
2018-06-27T03:39:36.875Z,81.59
2018-06-27T03:42:05.275Z,82.05
2018-06-27T03:44:33.651Z,82.06
2018-06-27T03:47:02.048Z,81.92
2018-06-27T03:49:30.426Z,81.41
2018-06-27T03:51:58.810Z,82.02
2018-06-27T03:54:27.182Z,81.68
2018-06-27T03:56:55.573Z,81.82
2018-06-27T03:59:23.936Z,81.56
2018-06-27T04:01:52.375Z,82.07
2018-06-27T04:04:20.742Z,81.86
2018-06-27T04:06:49.139Z,81.19
2018-06-27T04:09:17.519Z,81.45
2018-06-27T04:11:45.914Z,81.17
2018-06-27T04:14:14.297Z,81.13
2018-06-27T04:16:42.687Z,80.39
2018-06-27T04:19:11.054Z,80.12
2018-06-27T04:21:39.469Z,79.95
2018-06-27T04:24:07.971Z,80.55
2018-06-27T04:26:36.466Z,79.66
2018-06-27T04:29:04.847Z,79.63
2018-06-27T04:31:33.283Z,80.00
2018-06-27T04:34:01.729Z,79.64
2018-06-27T04:36:30.553Z,79.22
2018-06-27T04:38:58.931Z,79.90
2018-06-27T04:41:27.313Z,79.15
2018-06-27T04:43:55.686Z,79.25
2018-06-27T04:46:24.094Z,79.65
2018-06-27T04:48:52.461Z,79.77
2018-06-27T04:51:20.830Z,79.68
2018-06-27T04:53:49.222Z,80.00
2018-06-27T04:56:17.850Z,79.84
2018-06-27T04:58:46.234Z,79.51
2018-06-27T05:01:14.614Z,79.32
2018-06-27T05:03:43.452Z,79.76
2018-06-27T05:06:11.878Z,78.54
2018-06-27T05:08:40.325Z,78.75
2018-06-27T05:11:08.690Z,79.17
2018-06-27T05:13:37.094Z,79.38
2018-06-27T05:16:05.535Z,79.24
2018-06-27T05:18:33.899Z,78.26
2018-06-27T05:21:02.267Z,78.64
2018-06-27T05:23:30.658Z,78.96
2018-06-27T05:25:59.026Z,77.62
2018-06-27T05:28:27.410Z,77.72
2018-06-27T05:30:55.783Z,76.96
2018-06-27T05:33:24.187Z,77.80
2018-06-27T05:35:52.655Z,77.59
2018-06-27T05:38:21.037Z,77.99
2018-06-27T05:40:49.398Z,78.49
2018-06-27T05:43:17.782Z,78.18
2018-06-27T05:45:46.152Z,78.13
2018-06-27T05:48:14.534Z,78.21
2018-06-27T05:50:42.897Z,78.16
2018-06-27T05:53:11.290Z,78.76
2018-06-27T05:55:39.664Z,77.97
2018-06-27T05:58:08.118Z,77.74
2018-06-27T06:00:36.531Z,77.90
2018-06-27T06:03:05.090Z,77.30
2018-06-27T06:05:33.496Z,77.37
2018-06-27T06:08:01.862Z,76.50
2018-06-27T06:10:30.258Z,75.85
2018-06-27T06:12:58.661Z,76.37
2018-06-27T06:15:27.052Z,75.90
2018-06-27T06:17:55.418Z,74.71
2018-06-27T06:20:23.802Z,73.62
2018-06-27T06:22:52.161Z,72.77
2018-06-27T06:25:20.606Z,73.82
2018-06-27T06:27:48.926Z,71.62
2018-06-27T06:30:17.306Z,70.85
2018-06-27T06:32:45.772Z,71.23
2018-06-27T06:35:14.158Z,71.64
2018-06-27T06:37:42.529Z,70.99
2018-06-27T06:40:10.922Z,71.46
2018-06-27T06:42:39.287Z,69.98
2018-06-27T06:45:07.671Z,70.04
2018-06-27T06:47:36.033Z,69.84
2018-06-27T06:50:04.805Z,69.23
2018-06-27T06:52:33.177Z,69.62
2018-06-27T06:55:01.562Z,69.13
2018-06-27T06:57:29.926Z,68.50
2018-06-27T06:59:58.326Z,67.93
2018-06-27T07:02:26.734Z,67.12
2018-06-27T07:04:55.181Z,67.25
2018-06-27T07:07:23.527Z,65.60
2018-06-27T07:09:51.930Z,65.12
2018-06-27T07:12:20.313Z,65.63
2018-06-27T07:14:48.703Z,65.69
2018-06-27T07:17:17.070Z,65.00
2018-06-27T07:19:45.461Z,64.90
2018-06-27T07:22:13.835Z,64.37
2018-06-27T07:24:42.262Z,62.84
2018-06-27T07:27:10.632Z,62.91
2018-06-27T07:29:39.004Z,62.26
2018-06-27T07:32:07.450Z,61.90
2018-06-27T07:34:35.818Z,60.63
2018-06-27T07:37:04.259Z,61.05
2018-06-27T07:39:32.635Z,61.08
2018-06-27T07:42:01.024Z,61.64
2018-06-27T07:44:29.411Z,60.72
2018-06-27T07:46:57.810Z,60.34
2018-06-27T07:49:26.174Z,59.18
2018-06-27T07:51:54.566Z,59.76
2018-06-27T07:54:22.926Z,60.18
2018-06-27T07:56:51.330Z,59.85
2018-06-27T07:59:19.695Z,59.85
2018-06-27T08:01:48.094Z,59.35
2018-06-27T08:04:16.467Z,60.04
2018-06-27T08:06:46.134Z,59.31
2018-06-27T08:09:14.518Z,58.45
2018-06-27T08:11:43.454Z,57.45
2018-06-27T08:14:11.867Z,57.31
2018-06-27T08:16:40.369Z,55.95
2018-06-27T08:19:08.738Z,55.81
2018-06-27T08:21:37.135Z,54.55
2018-06-27T08:24:05.611Z,53.77
2018-06-27T08:26:34.003Z,52.91
2018-06-27T08:29:02.370Z,52.81
2018-06-27T08:31:30.766Z,51.97
2018-06-27T08:33:59.127Z,51.55
2018-06-27T08:36:27.515Z,50.47
2018-06-27T08:38:55.883Z,51.35
2018-06-27T08:41:24.284Z,49.97
2018-06-27T08:43:52.650Z,50.11
2018-06-27T08:46:21.182Z,50.11
2018-06-27T08:48:49.818Z,49.59
2018-06-27T08:51:18.302Z,49.80
2018-06-27T08:53:46.693Z,50.36
2018-06-27T08:56:15.067Z,49.96
2018-06-27T08:58:43.507Z,49.65
2018-06-27T09:01:11.843Z,48.94
2018-06-27T09:03:40.231Z,48.46
2018-06-27T09:06:08.604Z,48.85
2018-06-27T09:08:37.010Z,49.50
2018-06-27T09:11:05.380Z,49.17
2018-06-27T09:13:33.795Z,48.29
2018-06-27T09:16:02.179Z,47.63
2018-06-27T09:18:30.633Z,46.21
2018-06-27T09:20:58.962Z,46.32
2018-06-27T09:23:27.354Z,44.93
2018-06-27T09:25:55.711Z,44.71
2018-06-27T09:28:24.107Z,44.59
2018-06-27T09:30:52.579Z,45.41
2018-06-27T09:33:20.967Z,45.79
2018-06-27T09:35:49.334Z,45.84
2018-06-27T09:38:17.809Z,44.52
2018-06-27T09:40:46.190Z,44.75
2018-06-27T09:43:14.587Z,44.59
2018-06-27T09:45:42.968Z,43.92
2018-06-27T09:48:11.430Z,42.67
2018-06-27T09:50:39.794Z,44.53
2018-06-27T09:53:08.196Z,43.06
2018-06-27T09:55:36.565Z,43.75
2018-06-27T09:58:04.982Z,43.63
2018-06-27T10:00:38.218Z,43.33
2018-06-27T10:03:07.275Z,44.05
2018-06-27T10:05:36.237Z,44.21
2018-06-27T10:08:04.634Z,44.42
2018-06-27T10:10:33.027Z,43.80
2018-06-27T10:13:01.427Z,42.02
2018-06-27T10:15:29.818Z,42.75
2018-06-27T10:17:58.251Z,42.22
2018-06-27T10:20:26.642Z,43.06
2018-06-27T10:22:55.010Z,43.08
2018-06-27T10:25:23.400Z,43.13
2018-06-27T10:27:51.770Z,42.15
2018-06-27T10:30:20.163Z,42.58
2018-06-27T10:32:48.532Z,42.50
2018-06-27T10:35:16.922Z,42.31
2018-06-27T10:37:45.292Z,42.66
2018-06-27T10:40:13.687Z,41.46
2018-06-27T10:42:42.073Z,41.21
2018-06-27T10:45:10.486Z,40.79
2018-06-27T10:47:38.880Z,41.76
2018-06-27T10:50:07.270Z,41.05
2018-06-27T10:52:35.635Z,40.67
2018-06-27T10:55:09.302Z,41.32
2018-06-27T10:57:37.672Z,40.00
2018-06-27T11:00:06.260Z,40.36
2018-06-27T11:02:34.635Z,40.59
2018-06-27T11:05:03.069Z,40.12
2018-06-27T11:07:31.440Z,39.71
2018-06-27T11:09:59.837Z,40.19
2018-06-27T11:12:28.218Z,40.64
2018-06-27T11:14:56.598Z,40.87
2018-06-27T11:17:24.953Z,39.18
2018-06-27T11:19:53.347Z,39.46
2018-06-27T11:22:21.718Z,39.43
2018-06-27T11:24:50.119Z,38.84
2018-06-27T11:27:18.494Z,38.63
2018-06-27T11:29:46.895Z,38.86
2018-06-27T11:32:15.277Z,38.45
2018-06-27T11:34:43.664Z,39.38
2018-06-27T11:37:12.046Z,39.81
2018-06-27T11:39:40.406Z,39.46
2018-06-27T11:42:08.799Z,38.74
2018-06-27T11:44:37.272Z,39.21
2018-06-27T11:47:05.706Z,39.09
2018-06-27T11:49:34.082Z,39.48
2018-06-27T11:52:02.495Z,38.87
2018-06-27T11:54:30.862Z,38.29
2018-06-27T11:56:59.268Z,38.54
2018-06-27T11:59:27.639Z,39.55
2018-06-27T12:01:56.035Z,40.07
2018-06-27T12:04:24.935Z,40.34
2018-06-27T12:06:53.343Z,39.85
2018-06-27T12:09:21.711Z,39.48
2018-06-27T12:11:50.104Z,39.69
2018-06-27T12:14:18.517Z,39.83
2018-06-27T12:16:46.905Z,39.19
2018-06-27T12:19:15.275Z,40.04
2018-06-27T12:21:43.667Z,40.52
2018-06-27T12:24:12.030Z,40.11
2018-06-27T12:26:40.427Z,40.96
2018-06-27T12:29:08.810Z,41.55
2018-06-27T12:31:37.204Z,40.89
2018-06-27T12:34:05.566Z,41.66
2018-06-27T12:36:33.955Z,41.40
2018-06-27T12:39:02.319Z,42.30
2018-06-27T12:41:30.706Z,42.36
2018-06-27T12:43:59.075Z,41.67
2018-06-27T12:46:27.467Z,41.99
2018-06-27T12:48:56.306Z,41.39
2018-06-27T12:51:24.683Z,40.60
2018-06-27T12:53:53.076Z,41.81
2018-06-27T12:56:21.444Z,42.43
2018-06-27T12:58:49.841Z,42.08
2018-06-27T13:01:18.231Z,41.41
2018-06-27T13:03:46.663Z,41.27
2018-06-27T13:06:15.026Z,41.53
2018-06-27T13:08:43.466Z,41.92
2018-06-27T13:11:11.835Z,41.25
2018-06-27T13:13:40.255Z,40.04
2018-06-27T13:16:08.614Z,39.92
2018-06-27T13:18:37.011Z,39.90
2018-06-27T13:21:05.387Z,39.93
2018-06-27T13:23:34.086Z,39.24
2018-06-27T13:26:02.501Z,39.61
2018-06-27T13:28:30.897Z,39.75
2018-06-27T13:30:59.270Z,38.73
2018-06-27T13:33:27.667Z,39.27
2018-06-27T13:35:56.038Z,38.77
2018-06-27T13:38:24.428Z,39.46
2018-06-27T13:40:52.869Z,39.90
2018-06-27T13:43:21.341Z,39.63
2018-06-27T13:45:50.032Z,39.90
2018-06-27T13:48:18.464Z,41.24
2018-06-27T13:50:46.890Z,41.11
2018-06-27T13:53:15.286Z,41.76
2018-06-27T13:55:43.650Z,40.92
2018-06-27T13:58:12.034Z,42.03
2018-06-27T14:00:40.402Z,42.38
2018-06-27T14:03:08.834Z,42.42
2018-06-27T14:05:37.203Z,41.87
2018-06-27T14:08:05.870Z,41.99
2018-06-27T14:10:34.244Z,41.36
2018-06-27T14:13:02.633Z,41.74
2018-06-27T14:15:31.047Z,42.24
2018-06-27T14:17:59.422Z,42.80
2018-06-27T14:20:27.818Z,42.51
2018-06-27T14:22:56.178Z,42.21
2018-06-27T14:25:24.657Z,41.25
2018-06-27T14:27:53.559Z,41.75
2018-06-27T14:30:22.080Z,41.80
2018-06-27T14:32:50.521Z,42.22
2018-06-27T14:35:18.946Z,42.22
2018-06-27T14:37:47.400Z,43.14
2018-06-27T14:40:15.763Z,42.46
2018-06-27T14:42:44.137Z,43.29
2018-06-27T14:45:12.548Z,43.24
2018-06-27T14:47:41.011Z,43.83
2018-06-27T14:50:09.435Z,44.43
2018-06-27T14:52:37.811Z,43.36
2018-06-27T14:55:08.342Z,44.04
2018-06-27T14:57:37.420Z,43.12
2018-06-27T15:00:07.065Z,42.85
2018-06-27T15:02:35.455Z,42.90
2018-06-27T15:05:03.866Z,43.78
2018-06-27T15:07:32.442Z,43.41
2018-06-27T15:10:00.855Z,42.13
2018-06-27T15:12:29.262Z,42.85
2018-06-27T15:14:57.646Z,42.67
2018-06-27T15:17:26.048Z,41.66
2018-06-27T15:19:54.437Z,42.44
2018-06-27T15:22:22.815Z,43.45
2018-06-27T15:24:51.203Z,42.54
2018-06-27T15:27:19.567Z,43.50
2018-06-27T15:29:47.976Z,44.47
2018-06-27T15:32:16.337Z,43.70
2018-06-27T15:34:44.710Z,42.37
2018-06-27T15:37:13.149Z,43.57
2018-06-27T15:39:41.506Z,42.62
2018-06-27T15:42:10.009Z,43.50
2018-06-27T15:44:38.386Z,42.69
2018-06-27T15:47:06.847Z,43.01
2018-06-27T15:49:35.210Z,43.20
2018-06-27T15:52:03.618Z,42.46
2018-06-27T15:54:31.985Z,43.26
2018-06-27T15:57:00.412Z,43.10
2018-06-27T15:59:28.793Z,43.57
2018-06-27T16:01:57.202Z,42.77
2018-06-27T16:04:25.570Z,43.03
2018-06-27T16:06:53.972Z,42.56
2018-06-27T16:09:22.350Z,42.91
2018-06-27T16:11:51.042Z,42.22
2018-06-27T16:14:19.374Z,41.36
2018-06-27T16:16:47.831Z,41.22
2018-06-27T16:19:16.203Z,41.59
2018-06-27T16:21:44.594Z,41.09
2018-06-27T16:24:13.095Z,41.91
2018-06-27T16:26:41.495Z,41.91
2018-06-27T16:29:09.969Z,40.73
2018-06-27T16:31:38.452Z,41.30
2018-06-27T16:34:06.846Z,41.05
2018-06-27T16:36:35.244Z,39.00
2018-06-27T16:39:04.094Z,38.79
2018-06-27T16:41:32.534Z,37.99
2018-06-27T16:44:00.905Z,37.15
2018-06-27T16:46:29.366Z,37.30
2018-06-27T16:48:57.720Z,37.27
2018-06-27T16:51:26.268Z,37.37
2018-06-27T16:53:54.620Z,37.50
2018-06-27T16:56:22.996Z,37.38
2018-06-27T16:58:51.402Z,36.44
2018-06-27T17:01:19.859Z,36.84
2018-06-27T17:03:48.348Z,37.00
2018-06-27T17:06:16.754Z,37.19
2018-06-27T17:08:45.152Z,37.83
2018-06-27T17:11:13.518Z,38.79
2018-06-27T17:13:41.943Z,38.62
2018-06-27T17:16:10.387Z,39.32
2018-06-27T17:18:38.792Z,38.46
2018-06-27T17:21:07.307Z,39.16
2018-06-27T17:23:35.703Z,39.28
2018-06-27T17:26:04.103Z,39.66
2018-06-27T17:28:32.503Z,39.79
2018-06-27T17:31:00.962Z,40.22
2018-06-27T17:33:29.435Z,40.62
2018-06-27T17:35:57.816Z,40.34
2018-06-27T17:38:26.206Z,40.95
2018-06-27T17:40:54.582Z,41.08
2018-06-27T17:43:22.987Z,41.43
2018-06-27T17:45:51.390Z,41.73
2018-06-27T17:48:19.778Z,41.88
2018-06-27T17:50:48.147Z,42.19
2018-06-27T17:53:16.537Z,42.30
2018-06-27T17:55:44.902Z,42.36
2018-06-27T17:58:13.290Z,42.06
2018-06-27T18:00:41.673Z,43.24
2018-06-27T18:03:10.098Z,43.40
2018-06-27T18:05:38.475Z,45.11
2018-06-27T18:08:06.865Z,45.14
2018-06-27T18:10:35.243Z,46.94
2018-06-27T18:13:03.658Z,46.83
2018-06-27T18:15:32.133Z,48.04
2018-06-27T18:18:00.492Z,48.85
2018-06-27T18:20:28.967Z,48.94
2018-06-27T18:22:57.337Z,50.38
2018-06-27T18:25:25.738Z,50.56
2018-06-27T18:27:54.287Z,51.21
2018-06-27T18:30:22.700Z,51.26
2018-06-27T18:32:51.073Z,52.32
2018-06-27T18:35:19.472Z,52.79
2018-06-27T18:37:47.858Z,53.20
2018-06-27T18:40:16.265Z,53.07
2018-06-27T18:42:44.692Z,53.85
2018-06-27T18:45:13.138Z,54.18
2018-06-27T18:47:41.507Z,54.20
2018-06-27T18:50:09.909Z,53.78
2018-06-27T18:52:38.302Z,53.88
2018-06-27T18:55:06.693Z,54.16
2018-06-27T18:57:35.067Z,54.81
2018-06-27T19:00:03.477Z,54.72
2018-06-27T19:02:31.887Z,55.55
2018-06-27T19:05:00.282Z,55.81
2018-06-27T19:07:28.654Z,55.87
2018-06-27T19:09:57.061Z,56.16
2018-06-27T19:12:25.766Z,55.65
2018-06-27T19:14:54.188Z,56.59
2018-06-27T19:17:22.595Z,56.11
2018-06-27T19:19:50.981Z,56.52
2018-06-27T19:22:19.350Z,56.61
2018-06-27T19:24:47.764Z,57.11
2018-06-27T19:27:16.128Z,57.65
2018-06-27T19:29:44.524Z,57.06
2018-06-27T19:32:12.904Z,57.40
2018-06-27T19:34:41.273Z,57.72
2018-06-27T19:37:09.667Z,57.46
2018-06-27T19:39:38.154Z,57.50
2018-06-27T19:42:06.540Z,57.96
2018-06-27T19:44:34.995Z,57.96
2018-06-27T19:47:03.464Z,58.51
2018-06-27T19:49:31.783Z,57.93
2018-06-27T19:52:00.403Z,58.33
2018-06-27T19:54:28.835Z,59.17
2018-06-27T19:56:57.377Z,58.31
2018-06-27T19:59:25.742Z,59.75
2018-06-27T20:01:54.260Z,59.02
2018-06-27T20:04:22.827Z,58.89
2018-06-27T20:06:51.334Z,59.62
2018-06-27T20:09:19.661Z,59.74
2018-06-27T20:11:48.055Z,60.71
2018-06-27T20:14:16.555Z,59.88
2018-06-27T20:16:44.891Z,60.54
2018-06-27T20:19:13.332Z,61.46
2018-06-27T20:21:41.675Z,61.68
2018-06-27T20:24:10.052Z,61.69
2018-06-27T20:26:38.470Z,61.43
2018-06-27T20:29:07.085Z,62.26
2018-06-27T20:31:35.483Z,62.05
2018-06-27T20:34:04.004Z,62.86
2018-06-27T20:36:32.402Z,62.27
2018-06-27T20:39:00.775Z,62.54
2018-06-27T20:41:29.162Z,62.40
2018-06-27T20:43:57.529Z,63.38
2018-06-27T20:46:25.921Z,63.96
2018-06-27T20:48:54.289Z,63.41
2018-06-27T20:51:22.682Z,64.55
2018-06-27T20:53:51.051Z,64.47
2018-06-27T20:56:19.410Z,64.51
2018-06-27T20:58:47.814Z,64.41
2018-06-27T21:01:16.280Z,64.51
2018-06-27T21:03:44.655Z,65.60
2018-06-27T21:06:13.031Z,65.71
2018-06-27T21:08:41.418Z,65.58
2018-06-27T21:11:10.035Z,65.93
2018-06-27T21:13:38.442Z,66.04
2018-06-27T21:16:06.810Z,66.27
2018-06-27T21:18:35.499Z,66.59
2018-06-27T21:21:03.866Z,67.11
2018-06-27T21:23:32.271Z,67.73
2018-06-27T21:26:00.695Z,67.70
2018-06-27T21:28:29.262Z,68.35
2018-06-27T21:30:57.639Z,67.86
2018-06-27T21:33:26.027Z,68.89
2018-06-27T21:35:54.406Z,68.53
2018-06-27T21:38:22.853Z,69.39
2018-06-27T21:40:51.203Z,68.84
2018-06-27T21:43:19.598Z,69.73
2018-06-27T21:45:47.962Z,69.15
2018-06-27T21:48:16.354Z,69.40
2018-06-27T21:50:44.953Z,70.42
2018-06-27T21:53:13.326Z,70.59
2018-06-27T21:55:41.698Z,70.17
2018-06-27T21:58:10.141Z,70.29
2018-06-27T22:00:38.516Z,70.54
2018-06-27T22:03:07.846Z,70.10
2018-06-27T22:05:36.210Z,71.20
2018-06-27T22:08:04.606Z,70.33
2018-06-27T22:10:32.979Z,70.48
2018-06-27T22:13:01.442Z,70.75
2018-06-27T22:15:29.806Z,71.36
2018-06-27T22:17:59.770Z,71.60
2018-06-27T22:20:28.158Z,71.68
2018-06-27T22:22:56.554Z,72.15
2018-06-27T22:25:25.014Z,72.63
2018-06-27T22:27:53.382Z,72.90
2018-06-27T22:30:21.779Z,72.04
2018-06-27T22:32:50.231Z,73.20
2018-06-27T22:35:18.636Z,72.64
2018-06-27T22:37:47.023Z,72.83
2018-06-27T22:40:15.445Z,73.49
2018-06-27T22:42:44.811Z,73.05
2018-06-27T22:45:13.209Z,73.79
2018-06-27T22:47:41.603Z,73.74
2018-06-27T22:50:09.999Z,74.01
2018-06-27T22:52:38.371Z,73.36
2018-06-27T22:55:06.761Z,74.06
2018-06-27T22:57:35.245Z,74.00
2018-06-27T23:00:03.807Z,73.93
2018-06-27T23:02:32.182Z,74.41
2018-06-27T23:05:00.566Z,74.63
2018-06-27T23:07:28.941Z,74.81
2018-06-27T23:09:57.485Z,74.89
2018-06-27T23:12:25.938Z,75.16
2018-06-27T23:14:54.332Z,74.59
2018-06-27T23:17:22.697Z,74.63
2018-06-27T23:19:51.095Z,75.48
2018-06-27T23:22:30.921Z,75.21
2018-06-27T23:24:59.315Z,76.09
2018-06-27T23:27:27.683Z,75.68
2018-06-27T23:29:56.080Z,76.36
2018-06-27T23:32:24.446Z,76.29
2018-06-27T23:34:52.827Z,76.20
2018-06-27T23:39:48.630Z,75.85
2018-06-27T23:42:17.021Z,76.44
2018-06-27T23:44:45.441Z,76.24
2018-06-27T23:47:13.806Z,76.59
2018-06-27T23:49:42.260Z,76.44
2018-06-27T23:52:10.683Z,77.05
2018-06-27T23:54:39.055Z,76.60
2018-06-27T23:57:07.467Z,76.45
2018-06-27T23:59:35.838Z,77.13
